sensor_id;sensor_type;location;lat;lon;timestamp;pressure;altitude;pressure_sealevel;temperature;humidity
77799;BME280;66989;50.426;15.352;2023-01-29T00:01:44;99340.81;;;-5.09;83.01
77799;BME280;66989;50.426;15.352;2023-01-29T00:04:10;99331.34;;;-5.09;83.01
77799;BME280;66989;50.426;15.352;2023-01-29T00:06:35;99335.66;;;-5.11;82.25
77799;BME280;66989;50.426;15.352;2023-01-29T00:09:00;99345.09;;;-5.10;82.38
77799;BME280;66989;50.426;15.352;2023-01-29T00:11:26;99342.53;;;-5.10;83.26
77799;BME280;66989;50.426;15.352;2023-01-29T00:13:52;99345.97;;;-5.12;82.33
77799;BME280;66989;50.426;15.352;2023-01-29T00:16:17;99351.13;;;-5.14;79.40
77799;BME280;66989;50.426;15.352;2023-01-29T00:18:43;99352.00;;;-5.16;80.09
77799;BME280;66989;50.426;15.352;2023-01-29T00:21:13;99360.59;;;-5.16;79.71
77799;BME280;66989;50.426;15.352;2023-01-29T00:23:39;99353.72;;;-5.15;80.67
77799;BME280;66989;50.426;15.352;2023-01-29T00:26:05;99348.53;;;-5.17;80.72
77799;BME280;66989;50.426;15.352;2023-01-29T00:28:31;99356.28;;;-5.17;81.37
77799;BME280;66989;50.426;15.352;2023-01-29T00:30:56;99370.06;;;-5.16;80.78
77799;BME280;66989;50.426;15.352;2023-01-29T00:33:21;99361.47;;;-5.15;80.73
77799;BME280;66989;50.426;15.352;2023-01-29T00:35:47;99358.03;;;-5.16;78.91
77799;BME280;66989;50.426;15.352;2023-01-29T00:38:13;99358.03;;;-5.19;79.00
77799;BME280;66989;50.426;15.352;2023-01-29T00:40:39;99362.34;;;-5.21;77.75
77799;BME280;66989;50.426;15.352;2023-01-29T00:43:23;99376.09;;;-5.24;77.79
77799;BME280;66989;50.426;15.352;2023-01-29T00:46:24;99369.19;;;-5.23;77.64
77799;BME280;66989;50.426;15.352;2023-01-29T00:48:49;99360.63;;;-5.25;77.59
77799;BME280;66989;50.426;15.352;2023-01-29T00:51:14;99359.75;;;-5.22;76.96
77799;BME280;66989;50.426;15.352;2023-01-29T00:53:40;99350.31;;;-5.22;77.03
77799;BME280;66989;50.426;15.352;2023-01-29T00:56:05;99349.44;;;-5.22;77.22
77799;BME280;66989;50.426;15.352;2023-01-29T00:58:31;99334.81;;;-5.19;77.02
77799;BME280;66989;50.426;15.352;2023-01-29T01:00:59;99327.09;;;-5.20;77.23
77799;BME280;66989;50.426;15.352;2023-01-29T01:03:25;99333.09;;;-5.20;76.74
77799;BME280;66989;50.426;15.352;2023-01-29T01:06:01;99328.81;;;-5.19;76.89
77799;BME280;66989;50.426;15.352;2023-01-29T01:08:27;99331.38;;;-5.19;76.44
77799;BME280;66989;50.426;15.352;2023-01-29T01:11:11;99326.22;;;-5.18;76.30
77799;BME280;66989;50.426;15.352;2023-01-29T01:13:36;99322.75;;;-5.17;76.56
77799;BME280;66989;50.426;15.352;2023-01-29T01:16:11;99333.94;;;-5.15;76.38
77799;BME280;66989;50.426;15.352;2023-01-29T01:18:37;99321.06;;;-5.15;76.82
77799;BME280;66989;50.426;15.352;2023-01-29T01:21:02;99329.66;;;-5.16;76.98
77799;BME280;66989;50.426;15.352;2023-01-29T01:23:28;99321.91;;;-5.17;76.48
77799;BME280;66989;50.426;15.352;2023-01-29T01:25:54;99313.34;;;-5.16;76.96
77799;BME280;66989;50.426;15.352;2023-01-29T01:28:19;99317.59;;;-5.17;76.97
77799;BME280;66989;50.426;15.352;2023-01-29T01:30:45;99315.03;;;-5.15;77.18
77799;BME280;66989;50.426;15.352;2023-01-29T01:33:11;99308.16;;;-5.16;77.44
77799;BME280;66989;50.426;15.352;2023-01-29T01:35:37;99317.59;;;-5.17;77.46
77799;BME280;66989;50.426;15.352;2023-01-29T01:38:03;99316.75;;;-5.17;77.48
77799;BME280;66989;50.426;15.352;2023-01-29T01:40:28;99314.16;;;-5.17;77.67
77799;BME280;66989;50.426;15.352;2023-01-29T01:42:58;99317.59;;;-5.17;78.22
77799;BME280;66989;50.426;15.352;2023-01-29T01:50:34;99308.13;;;-5.12;78.14
77799;BME280;66989;50.426;15.352;2023-01-29T01:53:06;99313.28;;;-5.12;78.63
77799;BME280;66989;50.426;15.352;2023-01-29T01:55:33;99315.88;;;-5.12;79.35
77799;BME280;66989;50.426;15.352;2023-01-29T01:58:09;99323.63;;;-5.10;79.12
77799;BME280;66989;50.426;15.352;2023-01-29T02:00:37;99327.91;;;-5.11;78.99
77799;BME280;66989;50.426;15.352;2023-01-29T02:03:03;99327.91;;;-5.11;79.60
77799;BME280;66989;50.426;15.352;2023-01-29T02:05:48;99318.47;;;-5.10;80.02
77799;BME280;66989;50.426;15.352;2023-01-29T02:11:24;99317.59;;;-5.06;80.18
77799;BME280;66989;50.426;15.352;2023-01-29T02:13:49;99320.16;;;-5.06;79.92
77799;BME280;66989;50.426;15.352;2023-01-29T02:16:21;99310.72;;;-5.06;79.93
77799;BME280;66989;50.426;15.352;2023-01-29T02:18:47;99302.09;;;-5.05;80.61
77799;BME280;66989;50.426;15.352;2023-01-29T02:27:12;99302.06;;;-5.03;81.61
77799;BME280;66989;50.426;15.352;2023-01-29T02:32:16;99294.34;;;-5.03;81.88
77799;BME280;66989;50.426;15.352;2023-01-29T02:35:05;99293.50;;;-5.05;82.67
77799;BME280;66989;50.426;15.352;2023-01-29T02:46:17;99318.44;;;-5.09;83.50
77799;BME280;66989;50.426;15.352;2023-01-29T02:51:30;99328.78;;;-5.13;82.46
77799;BME280;66989;50.426;15.352;2023-01-29T02:59:38;99333.97;;;-5.16;81.17
77799;BME280;66989;50.426;15.352;2023-01-29T03:02:12;99325.34;;;-5.18;80.59
77799;BME280;66989;50.426;15.352;2023-01-29T03:04:43;99330.50;;;-5.18;80.04
77799;BME280;66989;50.426;15.352;2023-01-29T03:07:22;99324.50;;;-5.19;80.55
77799;BME280;66989;50.426;15.352;2023-01-29T03:10:53;99317.63;;;-5.18;81.00
77799;BME280;66989;50.426;15.352;2023-01-29T03:13:36;99311.63;;;-5.22;79.46
77799;BME280;66989;50.426;15.352;2023-01-29T03:16:18;99309.91;;;-5.21;78.73
77799;BME280;66989;50.426;15.352;2023-01-29T03:18:56;99315.94;;;-5.26;79.47
77799;BME280;66989;50.426;15.352;2023-01-29T03:21:39;99323.63;;;-5.22;79.94
77799;BME280;66989;50.426;15.352;2023-01-29T03:24:19;99309.91;;;-5.25;80.40
77799;BME280;66989;50.426;15.352;2023-01-29T03:27:07;99311.63;;;-5.24;80.27
77799;BME280;66989;50.426;15.352;2023-01-29T03:29:54;99312.47;;;-5.23;81.03
77799;BME280;66989;50.426;15.352;2023-01-29T03:32:41;99307.31;;;-5.23;80.48
77799;BME280;66989;50.426;15.352;2023-01-29T03:35:09;99297.00;;;-5.25;80.28
77799;BME280;66989;50.426;15.352;2023-01-29T03:37:42;99294.44;;;-5.25;80.20
77799;BME280;66989;50.426;15.352;2023-01-29T03:40:09;99300.47;;;-5.26;81.09
77799;BME280;66989;50.426;15.352;2023-01-29T03:45:26;99314.22;;;-5.34;83.00
77799;BME280;66989;50.426;15.352;2023-01-29T03:48:07;99312.50;;;-5.38;83.37
77799;BME280;66989;50.426;15.352;2023-01-29T03:50:56;99310.81;;;-5.44;84.89
77799;BME280;66989;50.426;15.352;2023-01-29T03:56:48;99316.00;;;-5.45;85.17
77799;BME280;66989;50.426;15.352;2023-01-29T04:02:17;99323.72;;;-5.47;86.17
77799;BME280;66989;50.426;15.352;2023-01-29T04:04:57;99315.16;;;-5.47;86.54
77799;BME280;66989;50.426;15.352;2023-01-29T04:07:24;99297.97;;;-5.52;86.50
77799;BME280;66989;50.426;15.352;2023-01-29T04:10:02;99302.25;;;-5.51;87.14
77799;BME280;66989;50.426;15.352;2023-01-29T04:12:39;99306.56;;;-5.51;87.71
77799;BME280;66989;50.426;15.352;2023-01-29T04:15:10;99310.00;;;-5.55;87.08
77799;BME280;66989;50.426;15.352;2023-01-29T04:17:41;99309.97;;;-5.58;87.59
77799;BME280;66989;50.426;15.352;2023-01-29T04:20:08;99304.00;;;-5.62;88.62
77799;BME280;66989;50.426;15.352;2023-01-29T04:22:36;99303.13;;;-5.59;88.61
77799;BME280;66989;50.426;15.352;2023-01-29T04:25:06;99295.41;;;-5.61;88.39
77799;BME280;66989;50.426;15.352;2023-01-29T04:41:25;99294.56;;;-5.66;90.54
77799;BME280;66989;50.426;15.352;2023-01-29T04:46:55;99288.56;;;-5.68;91.29
77799;BME280;66989;50.426;15.352;2023-01-29T04:54:55;99295.41;;;-5.70;91.63
77799;BME280;66989;50.426;15.352;2023-01-29T04:57:49;99284.25;;;-5.69;91.80
77799;BME280;66989;50.426;15.352;2023-01-29T05:00:17;99279.94;;;-5.70;91.30
77799;BME280;66989;50.426;15.352;2023-01-29T05:02:45;99280.81;;;-5.69;91.76
77799;BME280;66989;50.426;15.352;2023-01-29T05:05:12;99275.69;;;-5.68;91.83
77799;BME280;66989;50.426;15.352;2023-01-29T05:07:39;99275.69;;;-5.68;91.90
77799;BME280;66989;50.426;15.352;2023-01-29T05:10:08;99266.19;;;-5.69;92.04
77799;BME280;66989;50.426;15.352;2023-01-29T05:12:35;99265.34;;;-5.69;92.05
77799;BME280;66989;50.426;15.352;2023-01-29T05:15:03;99267.09;;;-5.71;92.00
77799;BME280;66989;50.426;15.352;2023-01-29T05:17:31;99271.38;;;-5.72;91.98
77799;BME280;66989;50.426;15.352;2023-01-29T05:19:56;99260.22;;;-5.72;92.44
77799;BME280;66989;50.426;15.352;2023-01-29T05:22:23;99266.22;;;-5.75;92.32
77799;BME280;66989;50.426;15.352;2023-01-29T05:24:49;99255.94;;;-5.77;91.91
77799;BME280;66989;50.426;15.352;2023-01-29T05:27:18;99252.50;;;-5.77;92.30
77799;BME280;66989;50.426;15.352;2023-01-29T05:30:03;99247.34;;;-5.80;92.31
77799;BME280;66989;50.426;15.352;2023-01-29T05:32:28;99242.22;;;-5.79;92.19
77799;BME280;66989;50.426;15.352;2023-01-29T05:34:54;99249.06;;;-5.79;91.75
77799;BME280;66989;50.426;15.352;2023-01-29T05:37:19;99245.63;;;-5.78;92.56
77799;BME280;66989;50.426;15.352;2023-01-29T05:39:45;99254.19;;;-5.79;91.71
77799;BME280;66989;50.426;15.352;2023-01-29T05:42:10;99248.22;;;-5.78;91.88
77799;BME280;66989;50.426;15.352;2023-01-29T05:44:36;99241.34;;;-5.82;91.69
77799;BME280;66989;50.426;15.352;2023-01-29T05:47:01;99238.78;;;-5.82;91.61
77799;BME280;66989;50.426;15.352;2023-01-29T05:49:29;99233.63;;;-5.82;91.72
77799;BME280;66989;50.426;15.352;2023-01-29T05:51:54;99240.47;;;-5.84;91.54
77799;BME280;66989;50.426;15.352;2023-01-29T05:54:21;99232.75;;;-5.86;91.37
77799;BME280;66989;50.426;15.352;2023-01-29T05:56:46;99232.75;;;-5.84;91.34
77799;BME280;66989;50.426;15.352;2023-01-29T05:59:12;99237.06;;;-5.83;90.96
77799;BME280;66989;50.426;15.352;2023-01-29T06:01:38;99234.47;;;-5.82;90.33
77799;BME280;66989;50.426;15.352;2023-01-29T06:04:04;99233.59;;;-5.81;90.20
77799;BME280;66989;50.426;15.352;2023-01-29T06:06:29;99228.47;;;-5.82;90.29
77799;BME280;66989;50.426;15.352;2023-01-29T06:08:55;99224.16;;;-5.82;89.41
77799;BME280;66989;50.426;15.352;2023-01-29T06:11:21;99235.31;;;-5.81;89.22
77799;BME280;66989;50.426;15.352;2023-01-29T06:13:46;99225.88;;;-5.81;88.55
77799;BME280;66989;50.426;15.352;2023-01-29T06:16:12;99237.91;;;-5.81;88.37
77799;BME280;66989;50.426;15.352;2023-01-29T06:18:39;99231.03;;;-5.79;88.36
77799;BME280;66989;50.426;15.352;2023-01-29T06:21:06;99244.78;;;-5.79;88.63
77799;BME280;66989;50.426;15.352;2023-01-29T06:23:32;99239.63;;;-5.80;88.04
77799;BME280;66989;50.426;15.352;2023-01-29T06:26:10;99229.31;;;-5.77;88.31
77799;BME280;66989;50.426;15.352;2023-01-29T06:28:35;99231.88;;;-5.74;87.46
77799;BME280;66989;50.426;15.352;2023-01-29T06:31:02;99231.03;;;-5.73;87.58
77799;BME280;66989;50.426;15.352;2023-01-29T06:33:28;99232.72;;;-5.72;87.44
77799;BME280;66989;50.426;15.352;2023-01-29T06:35:58;99237.03;;;-5.76;87.53
77799;BME280;66989;50.426;15.352;2023-01-29T06:38:24;99232.72;;;-5.75;87.71
77799;BME280;66989;50.426;15.352;2023-01-29T06:40:52;99236.16;;;-5.74;87.37
77799;BME280;66989;50.426;15.352;2023-01-29T06:43:17;99239.59;;;-5.76;87.10
77799;BME280;66989;50.426;15.352;2023-01-29T06:45:54;99250.78;;;-5.73;86.83
77799;BME280;66989;50.426;15.352;2023-01-29T06:48:20;99265.38;;;-5.72;86.99
77799;BME280;66989;50.426;15.352;2023-01-29T06:50:45;99259.34;;;-5.70;86.66
77799;BME280;66989;50.426;15.352;2023-01-29T06:53:11;99261.06;;;-5.66;86.76
77799;BME280;66989;50.426;15.352;2023-01-29T06:55:38;99266.22;;;-5.63;86.88
77799;BME280;66989;50.426;15.352;2023-01-29T06:58:07;99265.34;;;-5.65;86.73
77799;BME280;66989;50.426;15.352;2023-01-29T07:00:33;99275.66;;;-5.65;86.56
77799;BME280;66989;50.426;15.352;2023-01-29T07:02:59;99276.53;;;-5.66;86.88
77799;BME280;66989;50.426;15.352;2023-01-29T07:05:24;99279.94;;;-5.64;86.64
77799;BME280;66989;50.426;15.352;2023-01-29T07:07:50;99277.34;;;-5.64;86.65
77799;BME280;66989;50.426;15.352;2023-01-29T07:10:15;99283.38;;;-5.62;85.67
77799;BME280;66989;50.426;15.352;2023-01-29T07:12:40;99298.81;;;-5.59;85.62
77799;BME280;66989;50.426;15.352;2023-01-29T07:15:06;99303.13;;;-5.55;86.15
77799;BME280;66989;50.426;15.352;2023-01-29T07:17:32;99309.97;;;-5.54;85.97
77799;BME280;66989;50.426;15.352;2023-01-29T07:19:57;99315.16;;;-5.52;86.47
77799;BME280;66989;50.426;15.352;2023-01-29T07:22:23;99316.88;;;-5.53;86.21
77799;BME280;66989;50.426;15.352;2023-01-29T07:24:48;99324.59;;;-5.51;86.70
77799;BME280;66989;50.426;15.352;2023-01-29T07:27:14;99319.44;;;-5.50;86.56
77799;BME280;66989;50.426;15.352;2023-01-29T07:29:39;99334.03;;;-5.48;86.65
77799;BME280;66989;50.426;15.352;2023-01-29T07:32:05;99331.47;;;-5.42;86.54
77799;BME280;66989;50.426;15.352;2023-01-29T07:34:30;99329.72;;;-5.40;86.58
77799;BME280;66989;50.426;15.352;2023-01-29T07:36:55;99337.44;;;-5.33;86.68
77799;BME280;66989;50.426;15.352;2023-01-29T07:39:22;99340.84;;;-5.25;86.53
77799;BME280;66989;50.426;15.352;2023-01-29T07:41:48;99333.91;;;-5.12;86.18
77799;BME280;66989;50.426;15.352;2023-01-29T07:44:13;99318.41;;;-4.98;85.40
77799;BME280;66989;50.426;15.352;2023-01-29T07:46:39;99303.69;;;-4.82;84.05
77799;BME280;66989;50.426;15.352;2023-01-29T07:49:04;99308.63;;;-4.46;83.36
77799;BME280;66989;50.426;15.352;2023-01-29T07:51:31;99315.25;;;-4.09;81.55
77799;BME280;66989;50.426;15.352;2023-01-29T07:53:56;99324.41;;;-3.70;79.06
77799;BME280;66989;50.426;15.352;2023-01-29T07:56:21;99324.34;;;-3.61;76.45
77799;BME280;66989;50.426;15.352;2023-01-29T07:58:47;99328.69;;;-3.66;75.42
77799;BME280;66989;50.426;15.352;2023-01-29T08:01:12;99342.56;;;-3.76;75.76
77799;BME280;66989;50.426;15.352;2023-01-29T08:03:38;99324.66;;;-3.99;76.10
77799;BME280;66989;50.426;15.352;2023-01-29T08:06:03;99326.41;;;-4.04;76.01
77799;BME280;66989;50.426;15.352;2023-01-29T08:08:29;99329.06;;;-4.12;77.35
77799;BME280;66989;50.426;15.352;2023-01-29T08:10:54;99344.63;;;-4.20;78.20
77799;BME280;66989;50.426;15.352;2023-01-29T08:13:20;99342.88;;;-4.16;78.79
77799;BME280;66989;50.426;15.352;2023-01-29T08:15:45;99342.06;;;-4.21;78.57
77799;BME280;66989;50.426;15.352;2023-01-29T08:18:13;99334.34;;;-4.27;78.28
77799;BME280;66989;50.426;15.352;2023-01-29T08:20:39;99328.34;;;-4.32;78.07
77799;BME280;66989;50.426;15.352;2023-01-29T08:23:07;99336.06;;;-4.29;77.07
77799;BME280;66989;50.426;15.352;2023-01-29T08:25:34;99329.22;;;-4.32;77.94
77799;BME280;66989;50.426;15.352;2023-01-29T08:28:00;99337.78;;;-4.25;77.45
77799;BME280;66989;50.426;15.352;2023-01-29T08:30:28;99333.41;;;-4.15;76.68
77799;BME280;66989;50.426;15.352;2023-01-29T08:32:54;99323.91;;;-4.12;76.96
77799;BME280;66989;50.426;15.352;2023-01-29T08:35:19;99320.44;;;-4.11;77.17
77799;BME280;66989;50.426;15.352;2023-01-29T08:37:52;99324.69;;;-4.01;76.96
77799;BME280;66989;50.426;15.352;2023-01-29T08:40:19;99320.34;;;-3.99;76.22
77799;BME280;66989;50.426;15.352;2023-01-29T08:42:44;99308.16;;;-3.84;76.76
77799;BME280;66989;50.426;15.352;2023-01-29T08:45:11;99310.63;;;-3.71;77.99
77799;BME280;66989;50.426;15.352;2023-01-29T08:47:36;99313.13;;;-3.63;76.26
77799;BME280;66989;50.426;15.352;2023-01-29T08:50:02;99303.56;;;-3.53;76.28
77799;BME280;66989;50.426;15.352;2023-01-29T08:52:27;99289.50;;;-3.31;74.90
77799;BME280;66989;50.426;15.352;2023-01-29T08:54:53;99280.44;;;-2.93;74.70
77799;BME280;66989;50.426;15.352;2023-01-29T08:57:19;99284.75;;;-2.33;78.62
77799;BME280;66989;50.426;15.352;2023-01-29T08:59:45;99274.69;;;-1.98;74.71
77799;BME280;66989;50.426;15.352;2023-01-29T09:02:11;99273.50;;;-1.78;70.34
77799;BME280;66989;50.426;15.352;2023-01-29T09:04:36;99276.13;;;-1.81;69.14
77799;BME280;66989;50.426;15.352;2023-01-29T09:07:03;99277.72;;;-1.73;71.00
77799;BME280;66989;50.426;15.352;2023-01-29T09:09:28;99283.63;;;-1.65;70.04
77799;BME280;66989;50.426;15.352;2023-01-29T09:11:54;99292.56;;;-1.83;69.21
77799;BME280;66989;50.426;15.352;2023-01-29T09:14:20;99283.41;;;-2.03;69.85
77799;BME280;66989;50.426;15.352;2023-01-29T09:16:50;99291.47;;;-2.20;70.25
77799;BME280;66989;50.426;15.352;2023-01-29T09:19:15;99289.56;;;-2.09;69.48
77799;BME280;66989;50.426;15.352;2023-01-29T09:21:41;99291.75;;;-2.39;70.17
77799;BME280;66989;50.426;15.352;2023-01-29T09:24:06;99284.75;;;-2.33;69.97
77799;BME280;66989;50.426;15.352;2023-01-29T09:26:31;99283.09;;;-2.36;71.04
77799;BME280;66989;50.426;15.352;2023-01-29T09:29:00;99288.78;;;-2.14;69.53
77799;BME280;66989;50.426;15.352;2023-01-29T09:31:25;99291.50;;;-2.23;69.91
77799;BME280;66989;50.426;15.352;2023-01-29T09:33:51;99299.47;;;-2.36;69.52
77799;BME280;66989;50.426;15.352;2023-01-29T09:36:16;99297.16;;;-2.54;70.24
77799;BME280;66989;50.426;15.352;2023-01-29T09:38:41;99299.03;;;-2.64;71.02
77799;BME280;66989;50.426;15.352;2023-01-29T09:41:23;99306.06;;;-2.75;71.59
77799;BME280;66989;50.426;15.352;2023-01-29T09:43:59;99307.13;;;-2.90;71.17
77799;BME280;66989;50.426;15.352;2023-01-29T09:46:41;99300.38;;;-3.00;72.23
77799;BME280;66989;50.426;15.352;2023-01-29T09:51:46;99293.81;;;-3.31;74.17
77799;BME280;66989;50.426;15.352;2023-01-29T09:54:32;99293.88;;;-3.34;74.16
77799;BME280;66989;50.426;15.352;2023-01-29T09:57:00;99293.03;;;-3.36;74.50
77799;BME280;66989;50.426;15.352;2023-01-29T09:59:29;99270.50;;;-3.27;74.56
77799;BME280;66989;50.426;15.352;2023-01-29T10:02:02;99266.03;;;-3.16;73.46
77799;BME280;66989;50.426;15.352;2023-01-29T10:05:00;99257.38;;;-3.10;73.50
77799;BME280;66989;50.426;15.352;2023-01-29T10:10:49;99248.75;;;-3.12;73.59
77799;BME280;66989;50.426;15.352;2023-01-29T10:13:31;99251.34;;;-3.12;73.57
77799;BME280;66989;50.426;15.352;2023-01-29T10:16:27;99247.00;;;-3.08;73.67
77799;BME280;66989;50.426;15.352;2023-01-29T10:19:24;99248.47;;;-2.91;72.63
77799;BME280;66989;50.426;15.352;2023-01-29T10:27:00;99237.50;;;-2.49;70.28
77799;BME280;66989;50.426;15.352;2023-01-29T10:29:28;99234.19;;;-2.57;70.85
77799;BME280;66989;50.426;15.352;2023-01-29T10:31:59;99230.03;;;-2.69;71.66
77799;BME280;66989;50.426;15.352;2023-01-29T10:34:38;99229.28;;;-2.76;72.08
77799;BME280;66989;50.426;15.352;2023-01-29T10:37:34;99219.50;;;-2.58;70.81
77799;BME280;66989;50.426;15.352;2023-01-29T10:40:01;99227.97;;;-2.46;71.18
77799;BME280;66989;50.426;15.352;2023-01-29T10:42:49;99212.81;;;-2.18;74.72
77799;BME280;66989;50.426;15.352;2023-01-29T10:48:43;99206.94;;;-1.79;73.70
77799;BME280;66989;50.426;15.352;2023-01-29T10:53:58;99199.38;;;-1.90;68.11
77799;BME280;66989;50.426;15.352;2023-01-29T10:56:38;99197.94;;;-2.06;67.45
77799;BME280;66989;50.426;15.352;2023-01-29T11:01:37;99192.41;;;-2.36;69.59
77799;BME280;66989;50.426;15.352;2023-01-29T11:04:04;99184.56;;;-2.33;69.46
77799;BME280;66989;50.426;15.352;2023-01-29T11:06:34;99184.72;;;-2.41;70.39
77799;BME280;66989;50.426;15.352;2023-01-29T11:11:40;99188.94;;;-2.35;69.38
77799;BME280;66989;50.426;15.352;2023-01-29T11:14:30;99193.25;;;-2.36;69.11
77799;BME280;66989;50.426;15.352;2023-01-29T11:16:59;99186.38;;;-2.37;68.90
77799;BME280;66989;50.426;15.352;2023-01-29T11:19:42;99194.00;;;-2.29;70.18
77799;BME280;66989;50.426;15.352;2023-01-29T11:22:16;99194.06;;;-2.33;69.03
77799;BME280;66989;50.426;15.352;2023-01-29T11:24:42;99196.75;;;-2.38;69.43
77799;BME280;66989;50.426;15.352;2023-01-29T11:27:25;99186.63;;;-2.52;70.18
77799;BME280;66989;50.426;15.352;2023-01-29T11:29:54;99182.41;;;-2.59;70.42
77799;BME280;66989;50.426;15.352;2023-01-29T11:35:19;99176.66;;;-2.76;70.73
77799;BME280;66989;50.426;15.352;2023-01-29T11:37:45;99172.44;;;-2.83;70.71
77799;BME280;66989;50.426;15.352;2023-01-29T11:42:42;99151.97;;;-2.99;71.42
77799;BME280;66989;50.426;15.352;2023-01-29T11:45:30;99149.22;;;-2.88;70.85
77799;BME280;66989;50.426;15.352;2023-01-29T11:47:59;99145.00;;;-2.95;70.93
77799;BME280;66989;50.426;15.352;2023-01-29T11:50:27;99149.31;;;-2.94;71.61
77799;BME280;66989;50.426;15.352;2023-01-29T11:52:53;99143.22;;;-2.92;71.15
77799;BME280;66989;50.426;15.352;2023-01-29T11:55:24;99129.38;;;-2.88;71.70
77799;BME280;66989;50.426;15.352;2023-01-29T11:58:15;99124.13;;;-2.84;71.17
77799;BME280;66989;50.426;15.352;2023-01-29T12:00:45;99119.66;;;-2.75;71.86
77799;BME280;66989;50.426;15.352;2023-01-29T12:03:23;99115.19;;;-2.65;70.80
77799;BME280;66989;50.426;15.352;2023-01-29T12:08:31;99109.03;;;-2.58;71.47
77799;BME280;66989;50.426;15.352;2023-01-29T12:11:23;99114.31;;;-2.66;71.26
77799;BME280;66989;50.426;15.352;2023-01-29T12:13:54;99129.13;;;-2.72;69.95
77799;BME280;66989;50.426;15.352;2023-01-29T12:16:22;99111.25;;;-2.88;70.55
77799;BME280;66989;50.426;15.352;2023-01-29T12:22:05;99125.75;;;-2.77;71.80
77799;BME280;66989;50.426;15.352;2023-01-29T12:24:41;99127.44;;;-2.76;72.06
77799;BME280;66989;50.426;15.352;2023-01-29T12:27:18;99127.34;;;-2.70;72.26
77799;BME280;66989;50.426;15.352;2023-01-29T12:29:52;99124.75;;;-2.70;72.28
77799;BME280;66989;50.426;15.352;2023-01-29T12:32:30;99125.69;;;-2.74;72.21
77799;BME280;66989;50.426;15.352;2023-01-29T12:35:04;99124.09;;;-2.81;72.79
77799;BME280;66989;50.426;15.352;2023-01-29T12:40:28;99115.25;;;-2.68;72.49
77799;BME280;66989;50.426;15.352;2023-01-29T12:43:00;99106.44;;;-2.58;72.72
77799;BME280;66989;50.426;15.352;2023-01-29T12:45:29;99099.25;;;-2.44;72.23
77799;BME280;66989;50.426;15.352;2023-01-29T12:48:01;99104.25;;;-2.31;71.71
77799;BME280;66989;50.426;15.352;2023-01-29T12:50:32;99093.59;;;-2.16;70.73
77799;BME280;66989;50.426;15.352;2023-01-29T12:53:03;99089.25;;;-2.17;70.85
77799;BME280;66989;50.426;15.352;2023-01-29T12:55:40;99091.00;;;-2.18;71.12
77799;BME280;66989;50.426;15.352;2023-01-29T12:58:21;99088.56;;;-2.25;70.12
77799;BME280;66989;50.426;15.352;2023-01-29T13:00:50;99086.75;;;-2.20;70.58
77799;BME280;66989;50.426;15.352;2023-01-29T13:06:49;99072.91;;;-2.19;70.63
77799;BME280;66989;50.426;15.352;2023-01-29T13:09:16;99064.25;;;-2.18;70.20
77799;BME280;66989;50.426;15.352;2023-01-29T13:11:59;99041.78;;;-2.18;70.67
77799;BME280;66989;50.426;15.352;2023-01-29T13:14:44;99035.81;;;-2.23;70.26
77799;BME280;66989;50.426;15.352;2023-01-29T13:17:36;99044.81;;;-1.97;69.30
77799;BME280;66989;50.426;15.352;2023-01-29T13:20:27;99038.78;;;-1.96;70.40
77799;BME280;66989;50.426;15.352;2023-01-29T13:22:57;99041.13;;;-1.86;69.49
77799;BME280;66989;50.426;15.352;2023-01-29T13:25:25;99029.72;;;-1.78;69.65
77799;BME280;66989;50.426;15.352;2023-01-29T13:27:52;99038.50;;;-1.84;68.38
77799;BME280;66989;50.426;15.352;2023-01-29T13:30:28;99042.03;;;-1.88;68.59
77799;BME280;66989;50.426;15.352;2023-01-29T13:48:30;99031.53;;;-2.70;72.99
77799;BME280;66989;50.426;15.352;2023-01-29T13:51:00;99031.53;;;-2.70;72.13
77799;BME280;66989;50.426;15.352;2023-01-29T13:53:31;99035.00;;;-2.70;71.94
77799;BME280;66989;50.426;15.352;2023-01-29T14:01:09;99036.03;;;-2.80;73.27
77799;BME280;66989;50.426;15.352;2023-01-29T14:16:34;99036.13;;;-2.86;73.70
77799;BME280;66989;50.426;15.352;2023-01-29T14:19:01;99034.47;;;-2.89;73.48
77799;BME280;66989;50.426;15.352;2023-01-29T14:26:43;99020.75;;;-2.94;74.22
77799;BME280;66989;50.426;15.352;2023-01-29T14:29:17;99026.00;;;-2.98;76.05
77799;BME280;66989;50.426;15.352;2023-01-29T14:39:33;99018.75;;;-3.29;76.85
77799;BME280;66989;50.426;15.352;2023-01-29T15:02:54;99016.69;;;-3.64;78.84
77799;BME280;66989;50.426;15.352;2023-01-29T15:33:50;99003.09;;;-3.78;80.76
77799;BME280;66989;50.426;15.352;2023-01-29T15:36:24;99004.03;;;-3.81;80.83
77799;BME280;66989;50.426;15.352;2023-01-29T15:41:44;99004.97;;;-3.86;80.09
77799;BME280;66989;50.426;15.352;2023-01-29T15:44:15;99005.00;;;-3.89;80.60
77799;BME280;66989;50.426;15.352;2023-01-29T15:46:52;98999.88;;;-3.92;80.61
77799;BME280;66989;50.426;15.352;2023-01-29T15:49:24;98996.41;;;-3.91;81.80
77799;BME280;66989;50.426;15.352;2023-01-29T15:52:05;98989.53;;;-3.92;82.13
77799;BME280;66989;50.426;15.352;2023-01-29T15:54:33;98982.63;;;-3.90;81.89
77799;BME280;66989;50.426;15.352;2023-01-29T15:57:00;98985.19;;;-3.90;81.82
77799;BME280;66989;50.426;15.352;2023-01-29T15:59:38;98977.44;;;-3.90;81.41
77799;BME280;66989;50.426;15.352;2023-01-29T16:02:28;98978.34;;;-3.91;81.13
77799;BME280;66989;50.426;15.352;2023-01-29T16:04:57;98977.44;;;-3.90;81.82
77799;BME280;66989;50.426;15.352;2023-01-29T16:07:23;98988.63;;;-3.90;81.24
77799;BME280;66989;50.426;15.352;2023-01-29T16:09:49;98977.41;;;-3.87;82.80
77799;BME280;66989;50.426;15.352;2023-01-29T16:12:15;98986.03;;;-3.87;81.73
77799;BME280;66989;50.426;15.352;2023-01-29T16:14:41;98992.91;;;-3.86;82.44
77799;BME280;66989;50.426;15.352;2023-01-29T16:17:29;98990.28;;;-3.84;82.43
77799;BME280;66989;50.426;15.352;2023-01-29T16:20:03;98991.13;;;-3.84;82.19
77799;BME280;66989;50.426;15.352;2023-01-29T16:22:32;99000.63;;;-3.84;81.87
77799;BME280;66989;50.426;15.352;2023-01-29T16:25:03;99003.19;;;-3.84;82.52
77799;BME280;66989;50.426;15.352;2023-01-29T16:27:31;99005.75;;;-3.81;83.90
77799;BME280;66989;50.426;15.352;2023-01-29T16:29:57;98996.22;;;-3.79;83.32
77799;BME280;66989;50.426;15.352;2023-01-29T16:32:24;98993.56;;;-3.72;84.96